Time;durP1;ratioP1;P1;durP2;ratioP2;P2;SDS_P1;SDS_P2;PMS_P1;PMS_P2;Temp;Humidity;BMP_temperature;BMP_pressure;BME280_temperature;BME280_humidity;BME280_pressure;Samples;Min_cycle;Max_cycle;Signal;HPM_P1;HPM_P2
2022/12/21 00:01:07;;;;;;;;;;;7.20;99.90;;;;;;4956443;28;1236;-65
2022/12/21 00:03:32;;;;;;;;;;;7.30;99.90;;;;;;4952686;28;1298;-65
2022/12/21 00:05:58;;;;;;;;;;;7.30;99.90;;;;;;4952109;29;1096;-65
2022/12/21 00:08:24;;;;;;;;;;;7.40;99.90;;;;;;4951725;28;1222;-65
2022/12/21 00:10:49;;;;;;;;;;;7.30;99.90;;;;;;4953165;28;1195;-65
2022/12/21 00:13:17;;;;;;;;;;;7.40;99.90;;;;;;4947626;28;1236;-66
2022/12/21 00:15:44;;;;;;;;;;;7.40;99.90;;;;;;4969128;28;1311;-65
2022/12/21 00:18:10;;;;;;;;;;;7.30;99.90;;;;;;4952147;29;1981;-65
2022/12/21 00:20:36;;;;;;;;;;;7.30;99.90;;;;;;4934841;29;1304;-65
2022/12/21 00:23:01;;;;;;;;;;;7.30;99.90;;;;;;4951115;29;945;-65
2022/12/21 00:25:27;;;;;;;;;;;7.20;99.90;;;;;;4959733;28;1141;-65
2022/12/21 00:27:53;;;;;;;;;;;7.20;99.90;;;;;;4970734;28;1190;-65
2022/12/21 00:30:18;;;;;;;;;;;7.10;99.90;;;;;;4953186;28;1153;-65
2022/12/21 00:32:44;;;;;;;;;;;7.10;99.90;;;;;;4971249;28;969;-65
2022/12/21 00:35:10;;;;;;;;;;;7.00;99.90;;;;;;4953786;28;1208;-65
2022/12/21 00:37:35;;;;;;;;;;;7.00;99.90;;;;;;4951157;29;1902;-65
2022/12/21 00:40:02;;;;;;;;;;;6.90;99.90;;;;;;4951716;29;1180;-65
2022/12/21 00:42:28;;;;;;;;;;;6.90;99.90;;;;;;4951523;28;1092;-65
2022/12/21 00:44:53;;;;;;;;;;;6.90;99.90;;;;;;4963671;28;1153;-65
2022/12/21 00:47:19;;;;;;;;;;;6.90;99.90;;;;;;4934633;29;1092;-65
2022/12/21 00:49:44;;;;;;;;;;;6.80;99.90;;;;;;4950676;28;1038;-65
2022/12/21 00:52:10;;;;;;;;;;;6.80;99.90;;;;;;4952489;28;1359;-65
2022/12/21 00:54:36;;;;;;;;;;;6.80;99.90;;;;;;4934407;29;1152;-65
2022/12/21 00:57:01;;;;;;;;;;;6.70;99.90;;;;;;4933215;29;1906;-65
2022/12/21 00:59:27;;;;;;;;;;;6.70;99.90;;;;;;4934512;29;1172;-65
2022/12/21 01:01:53;;;;;;;;;;;6.80;99.90;;;;;;4964766;28;1157;-65
2022/12/21 01:04:18;;;;;;;;;;;6.90;99.90;;;;;;4954468;28;1630;-65
2022/12/21 01:06:44;;;;;;;;;;;6.90;99.90;;;;;;4951126;29;1327;-65
2022/12/21 01:09:10;;;;;;;;;;;7.00;99.90;;;;;;4951303;28;1138;-65
2022/12/21 01:11:36;;;;;;;;;;;7.00;99.90;;;;;;4930897;29;1120;-65
2022/12/21 01:14:02;;;;;;;;;;;7.00;99.90;;;;;;4951509;29;1147;-65
2022/12/21 01:16:29;;;;;;;;;;;6.80;99.90;;;;;;4950570;28;1281;-65
2022/12/21 01:18:56;;;;;;;;;;;6.70;99.90;;;;;;4949993;28;1907;-65
2022/12/21 01:21:23;;;;;;;;;;;6.50;99.90;;;;;;4951321;29;1103;-65
2022/12/21 01:23:50;;;;;;;;;;;6.40;99.90;;;;;;4933967;29;1204;-65
2022/12/21 01:26:17;;;;;;;;;;;6.40;99.90;;;;;;4933079;29;1017;-65
2022/12/21 01:28:43;;;;;;;;;;;6.40;99.90;;;;;;4958709;28;1258;-65
2022/12/21 01:31:10;;;;;;;;;;;6.30;99.90;;;;;;4953295;28;1155;-65
2022/12/21 01:33:35;;;;;;;;;;;6.30;99.90;;;;;;4969511;28;1178;-65
2022/12/21 01:36:08;;;;;;;;;;;6.30;99.90;;;;;;4963132;28;1179;-65
2022/12/21 01:38:34;;;;;;;;;;;6.30;99.90;;;;;;4930384;29;1970;-65
2022/12/21 01:41:00;;;;;;;;;;;6.30;99.90;;;;;;4946158;29;1144;-65
2022/12/21 01:43:40;;;;;;;;;;;6.30;99.90;;;;;;4951162;29;1190;-65
2022/12/21 01:46:08;;;;;;;;;;;6.30;99.90;;;;;;4937334;28;1178;-65
2022/12/21 01:48:36;;;;;;;;;;;6.20;99.90;;;;;;4952922;28;1111;-65
2022/12/21 01:51:05;;;;;;;;;;;6.20;99.90;;;;;;4959064;28;1410;-65
2022/12/21 01:53:33;;;;;;;;;;;6.20;99.90;;;;;;4954824;28;1611;-65
2022/12/21 01:56:01;;;;;;;;;;;6.10;99.90;;;;;;4933704;29;1127;-65
2022/12/21 01:58:28;;;;;;;;;;;6.10;99.90;;;;;;4933792;29;1976;-65
2022/12/21 02:00:55;;;;;;;;;;;6.10;99.90;;;;;;4933261;29;1092;-64
2022/12/21 02:03:23;;;;;;;;;;;6.00;99.90;;;;;;4955989;28;1274;-65
2022/12/21 02:05:49;;;;;;;;;;;6.00;99.90;;;;;;4933497;29;1198;-65
2022/12/21 02:08:15;;;;;;;;;;;5.90;99.90;;;;;;4950254;29;1156;-64
2022/12/21 02:10:41;;;;;;;;;;;5.90;99.90;;;;;;4933166;28;1266;-64
2022/12/21 02:13:13;;;;;;;;;;;5.90;99.90;;;;;;4963751;28;1104;-65
2022/12/21 02:15:53;;;;;;;;;;;5.80;99.90;;;;;;4969271;28;1134;-65
2022/12/21 02:18:26;;;;;;;;;;;5.80;99.90;;;;;;4950760;28;1958;-65
2022/12/21 02:20:52;;;;;;;;;;;5.80;99.90;;;;;;4949557;28;1081;-65
2022/12/21 02:23:44;;;;;;;;;;;5.80;99.90;;;;;;4950643;29;1129;-65
2022/12/21 02:26:20;;;;;;;;;;;5.80;99.90;;;;;;4933160;28;1187;-65
2022/12/21 02:29:13;;;;;;;;;;;5.80;99.90;;;;;;4952993;28;1104;-64
2022/12/21 02:31:47;;;;;;;;;;;5.80;99.90;;;;;;4952997;29;1140;-64
2022/12/21 02:34:21;;;;;;;;;;;5.70;99.90;;;;;;4953834;28;1089;-64
2022/12/21 02:36:55;;;;;;;;;;;5.70;99.90;;;;;;4957887;28;1212;-65
2022/12/21 02:39:30;;;;;;;;;;;5.70;99.90;;;;;;4941806;28;1131;-64
2022/12/21 02:41:57;;;;;;;;;;;5.80;99.90;;;;;;4941656;29;1314;-65
2022/12/21 02:44:31;;;;;;;;;;;5.80;99.90;;;;;;4951052;29;1163;-64
2022/12/21 02:46:58;;;;;;;;;;;5.80;99.90;;;;;;4936363;29;1180;-65
2022/12/21 02:49:28;;;;;;;;;;;5.80;99.90;;;;;;4953220;28;1179;-65
2022/12/21 02:52:01;;;;;;;;;;;5.70;99.90;;;;;;4955654;28;1340;-64
2022/12/21 02:54:27;;;;;;;;;;;5.70;99.90;;;;;;4938799;29;1230;-65
2022/12/21 02:56:53;;;;;;;;;;;5.80;99.90;;;;;;4965103;28;1914;-64
2022/12/21 02:59:21;;;;;;;;;;;5.70;99.90;;;;;;4955747;28;1030;-64
2022/12/21 03:01:55;;;;;;;;;;;5.60;99.90;;;;;;4971413;28;1170;-64
2022/12/21 03:04:31;;;;;;;;;;;5.60;99.90;;;;;;4923897;29;1710;-65
2022/12/21 03:07:03;;;;;;;;;;;5.70;99.90;;;;;;4935349;29;1152;-65
2022/12/21 03:09:39;;;;;;;;;;;5.80;99.90;;;;;;4936115;29;1073;-65
2022/12/21 03:12:13;;;;;;;;;;;5.70;99.90;;;;;;4935398;29;1213;-64
2022/12/21 03:14:39;;;;;;;;;;;5.80;99.90;;;;;;4948120;28;1185;-65
2022/12/21 03:17:22;;;;;;;;;;;5.80;99.90;;;;;;4964073;28;1985;-64
2022/12/21 03:19:54;;;;;;;;;;;5.80;99.90;;;;;;4935875;29;1095;-65
2022/12/21 03:22:24;;;;;;;;;;;5.60;99.90;;;;;;4935914;29;1168;-65
2022/12/21 03:24:56;;;;;;;;;;;5.80;99.90;;;;;;4968225;28;1143;-65
2022/12/21 03:27:26;;;;;;;;;;;5.50;99.90;;;;;;4972562;28;1199;-64
2022/12/21 03:29:55;;;;;;;;;;;5.50;99.90;;;;;;4954881;28;1143;-65
2022/12/21 03:32:30;;;;;;;;;;;5.50;99.90;;;;;;4964816;28;1105;-65
2022/12/21 03:34:57;;;;;;;;;;;5.60;99.90;;;;;;4972379;28;1131;-65
2022/12/21 03:37:25;;;;;;;;;;;5.60;99.90;;;;;;4968640;28;1906;-65
2022/12/21 03:39:55;;;;;;;;;;;5.50;99.90;;;;;;4939312;28;1104;-65
2022/12/21 03:42:23;;;;;;;;;;;5.50;99.90;;;;;;4972214;28;1158;-65
2022/12/21 03:44:53;;;;;;;;;;;5.50;99.90;;;;;;4965328;28;1212;-64
2022/12/21 03:47:23;;;;;;;;;;;5.40;99.90;;;;;;4951906;28;1159;-64
2022/12/21 03:49:54;;;;;;;;;;;5.40;99.90;;;;;;4960922;28;1113;-65
2022/12/21 03:52:22;;;;;;;;;;;5.30;99.90;;;;;;4966068;28;1359;-64
2022/12/21 03:55:04;;;;;;;;;;;5.40;99.90;;;;;;4952629;29;1135;-64
2022/12/21 03:57:30;;;;;;;;;;;5.30;99.90;;;;;;4939752;28;1953;-65
2022/12/21 03:59:58;;;;;;;;;;;5.40;99.90;;;;;;4971475;28;1166;-65
2022/12/21 04:02:36;;;;;;;;;;;5.40;99.90;;;;;;4971440;28;1147;-64
2022/12/21 04:05:02;;;;;;;;;;;5.30;99.90;;;;;;4946543;29;1033;-65
2022/12/21 04:07:28;;;;;;;;;;;5.20;99.90;;;;;;4955690;28;1233;-64
2022/12/21 04:10:03;;;;;;;;;;;5.20;99.90;;;;;;4952116;29;1190;-64
2022/12/21 04:12:36;;;;;;;;;;;5.20;99.90;;;;;;4952669;29;1092;-64
2022/12/21 04:15:03;;;;;;;;;;;5.20;99.90;;;;;;4950760;28;1116;-65
2022/12/21 04:17:28;;;;;;;;;;;5.20;99.90;;;;;;4953801;28;1915;-64
2022/12/21 04:20:02;;;;;;;;;;;5.20;99.90;;;;;;4951863;29;1214;-65
2022/12/21 04:28:07;;;;;;;;;;;5.20;99.90;;;;;;4951349;29;1190;-64
2022/12/21 04:30:34;;;;;;;;;;;5.20;99.90;;;;;;4951583;29;1120;-65
2022/12/21 04:33:00;;;;;;;;;;;5.20;99.90;;;;;;4937879;28;1117;-64
2022/12/21 04:35:25;;;;;;;;;;;5.20;99.90;;;;;;4970734;28;1135;-65
2022/12/21 04:37:51;;;;;;;;;;;5.20;99.90;;;;;;4963199;28;1915;-65
2022/12/21 04:40:17;;;;;;;;;;;5.20;99.90;;;;;;4951896;29;1128;-65
2022/12/21 04:42:42;;;;;;;;;;;5.20;99.90;;;;;;4954220;28;1108;-65
2022/12/21 04:45:08;;;;;;;;;;;5.20;99.90;;;;;;4961747;28;1127;-65
2022/12/21 04:47:34;;;;;;;;;;;5.20;99.90;;;;;;4951624;29;1141;-65
2022/12/21 04:50:00;;;;;;;;;;;5.30;99.90;;;;;;4950423;28;1211;-65
2022/12/21 04:52:25;;;;;;;;;;;5.20;99.90;;;;;;4953995;28;1288;-65
2022/12/21 04:54:51;;;;;;;;;;;5.20;99.90;;;;;;4941409;29;1829;-65
2022/12/21 04:57:17;;;;;;;;;;;5.10;99.90;;;;;;4951945;28;1997;-65
2022/12/21 04:59:44;;;;;;;;;;;5.10;99.90;;;;;;4950737;28;1334;-65
2022/12/21 05:02:10;;;;;;;;;;;5.10;99.90;;;;;;4953968;28;1278;-65
2022/12/21 05:04:36;;;;;;;;;;;5.10;99.90;;;;;;4953585;28;1590;-65
2022/12/21 05:07:01;;;;;;;;;;;5.20;99.90;;;;;;4951189;29;1354;-65
2022/12/21 05:09:27;;;;;;;;;;;5.20;99.90;;;;;;4951030;28;1113;-65
2022/12/21 05:11:54;;;;;;;;;;;5.20;99.90;;;;;;4950618;29;1152;-65
2022/12/21 05:14:20;;;;;;;;;;;5.20;99.90;;;;;;4951419;29;1159;-65
2022/12/21 05:16:46;;;;;;;;;;;5.30;99.90;;;;;;4950191;28;1108;-65
2022/12/21 05:19:11;;;;;;;;;;;5.30;99.90;;;;;;4943514;28;2042;-65
2022/12/21 05:21:37;;;;;;;;;;;5.30;99.90;;;;;;4970510;28;1155;-65
2022/12/21 05:24:03;;;;;;;;;;;5.30;99.90;;;;;;4969565;28;1131;-65
2022/12/21 05:26:28;;;;;;;;;;;5.30;99.90;;;;;;4959830;28;1115;-65
2022/12/21 05:28:54;;;;;;;;;;;5.30;99.90;;;;;;4951349;29;1151;-65
2022/12/21 05:31:20;;;;;;;;;;;5.20;99.90;;;;;;4950345;29;1120;-65
2022/12/21 05:33:45;;;;;;;;;;;5.20;99.90;;;;;;4933779;29;1183;-65
2022/12/21 05:36:12;;;;;;;;;;;5.30;99.90;;;;;;4966840;28;1043;-65
2022/12/21 05:38:38;;;;;;;;;;;5.30;99.90;;;;;;4955877;28;1969;-65
2022/12/21 05:41:04;;;;;;;;;;;5.30;99.90;;;;;;4951223;29;1092;-65
2022/12/21 05:43:30;;;;;;;;;;;5.30;99.90;;;;;;4951041;28;1170;-65
2022/12/21 05:46:03;;;;;;;;;;;5.30;99.90;;;;;;4950221;29;1243;-65
2022/12/21 05:48:30;;;;;;;;;;;5.30;99.90;;;;;;4951125;28;1130;-65
2022/12/21 05:50:55;;;;;;;;;;;5.30;99.90;;;;;;4952147;28;1156;-65
2022/12/21 05:53:21;;;;;;;;;;;5.30;99.90;;;;;;4951922;28;1676;-65
2022/12/21 05:55:47;;;;;;;;;;;5.30;99.90;;;;;;4950969;29;1044;-65
2022/12/21 05:58:12;;;;;;;;;;;5.20;99.90;;;;;;4951122;29;1910;-65
2022/12/21 06:00:38;;;;;;;;;;;5.20;99.90;;;;;;4949652;28;1183;-65
2022/12/21 06:03:05;;;;;;;;;;;5.30;99.90;;;;;;4953583;28;1283;-65
2022/12/21 06:05:30;;;;;;;;;;;5.10;99.90;;;;;;4958127;28;1143;-64
2022/12/21 06:07:56;;;;;;;;;;;5.10;99.90;;;;;;4953732;29;1089;-65
2022/12/21 06:10:21;;;;;;;;;;;5.10;99.90;;;;;;4936553;29;1136;-65
2022/12/21 06:12:47;;;;;;;;;;;5.10;99.90;;;;;;4954077;28;1261;-65
2022/12/21 06:15:13;;;;;;;;;;;5.10;99.90;;;;;;4953316;28;1364;-65
2022/12/21 06:17:39;;;;;;;;;;;5.20;99.90;;;;;;4921090;29;1915;-65
2022/12/21 06:20:05;;;;;;;;;;;5.20;99.90;;;;;;4940355;28;1148;-65
2022/12/21 06:22:33;;;;;;;;;;;5.20;99.90;;;;;;4973386;28;1190;-65
2022/12/21 06:24:59;;;;;;;;;;;5.30;99.90;;;;;;4973570;28;1029;-65
2022/12/21 06:27:24;;;;;;;;;;;5.30;99.90;;;;;;4969994;28;1111;-65
2022/12/21 06:29:50;;;;;;;;;;;5.30;99.90;;;;;;4953760;29;1159;-66
2022/12/21 06:32:15;;;;;;;;;;;5.40;99.90;;;;;;4954004;29;1163;-66
2022/12/21 06:34:41;;;;;;;;;;;5.30;99.90;;;;;;4953493;29;1123;-66
2022/12/21 06:37:07;;;;;;;;;;;5.30;99.90;;;;;;4953119;28;1984;-66
2022/12/21 06:39:32;;;;;;;;;;;5.40;99.90;;;;;;4954140;29;1158;-66
2022/12/21 06:41:58;;;;;;;;;;;5.40;99.90;;;;;;4953455;29;1163;-66
2022/12/21 06:44:24;;;;;;;;;;;5.40;99.90;;;;;;4933475;29;1124;-66
2022/12/21 06:46:49;;;;;;;;;;;5.50;99.90;;;;;;4960620;28;1102;-66
2022/12/21 06:49:15;;;;;;;;;;;5.50;99.90;;;;;;4972554;28;1135;-66
2022/12/21 06:51:41;;;;;;;;;;;5.50;99.90;;;;;;4972868;28;1346;-66
2022/12/21 06:54:07;;;;;;;;;;;5.50;99.90;;;;;;4950735;28;1163;-66
2022/12/21 06:56:33;;;;;;;;;;;5.50;99.90;;;;;;4952785;28;1229;-66
2022/12/21 06:58:59;;;;;;;;;;;5.50;99.90;;;;;;4954596;28;1906;-66
2022/12/21 07:01:27;;;;;;;;;;;5.50;99.90;;;;;;4942549;29;1214;-66
2022/12/21 07:03:53;;;;;;;;;;;5.60;99.90;;;;;;4956225;28;1270;-66
2022/12/21 07:06:19;;;;;;;;;;;5.50;99.90;;;;;;4952904;28;1203;-66
2022/12/21 07:08:47;;;;;;;;;;;5.60;99.90;;;;;;4953600;28;1282;-66
2022/12/21 07:11:13;;;;;;;;;;;5.60;99.90;;;;;;4954071;28;1167;-65
2022/12/21 07:13:40;;;;;;;;;;;5.60;99.90;;;;;;4954771;28;1125;-65
2022/12/21 07:16:06;;;;;;;;;;;5.60;99.90;;;;;;4952869;28;1242;-65
2022/12/21 07:18:32;;;;;;;;;;;5.60;99.90;;;;;;4952571;29;1956;-65
2022/12/21 07:21:02;;;;;;;;;;;5.60;99.90;;;;;;4952866;28;1119;-65
2022/12/21 07:23:28;;;;;;;;;;;5.70;99.90;;;;;;4970041;28;1131;-65
2022/12/21 07:25:54;;;;;;;;;;;5.60;99.90;;;;;;4972641;28;1163;-65
2022/12/21 07:28:20;;;;;;;;;;;5.60;99.90;;;;;;4954754;28;1103;-65
2022/12/21 07:30:48;;;;;;;;;;;5.70;99.90;;;;;;4951992;28;1122;-65
2022/12/21 07:33:15;;;;;;;;;;;5.70;99.90;;;;;;4953410;29;1005;-65
2022/12/21 07:35:41;;;;;;;;;;;5.80;99.90;;;;;;4952606;29;1107;-65
2022/12/21 07:38:06;;;;;;;;;;;5.90;99.90;;;;;;4951993;28;1922;-65
2022/12/21 07:40:32;;;;;;;;;;;5.70;99.90;;;;;;4953519;28;1251;-65
2022/12/21 07:42:58;;;;;;;;;;;5.80;99.90;;;;;;4952341;28;1238;-65
2022/12/21 07:45:38;;;;;;;;;;;5.80;99.90;;;;;;4941247;28;1243;-65
2022/12/21 07:48:05;;;;;;;;;;;4.70;99.90;;;;;;4940603;29;1305;-65
2022/12/21 07:50:31;;;;;;;;;;;5.80;99.90;;;;;;4952425;29;1250;-65
2022/12/21 07:52:58;;;;;;;;;;;5.60;99.90;;;;;;4959148;28;1580;-65
2022/12/21 07:55:25;;;;;;;;;;;5.60;99.90;;;;;;4952869;29;1155;-65
2022/12/21 07:57:51;;;;;;;;;;;5.60;99.90;;;;;;4959292;28;1919;-65
2022/12/21 08:00:17;;;;;;;;;;;5.60;99.90;;;;;;4971188;28;1111;-65
2022/12/21 08:02:43;;;;;;;;;;;5.60;99.90;;;;;;4958481;28;1285;-65
2022/12/21 08:05:09;;;;;;;;;;;5.70;99.90;;;;;;4951826;28;1341;-65
2022/12/21 08:07:34;;;;;;;;;;;5.60;99.90;;;;;;4951511;29;1195;-65
2022/12/21 08:10:00;;;;;;;;;;;5.70;99.90;;;;;;4952483;29;1115;-65
2022/12/21 08:12:26;;;;;;;;;;;5.60;99.90;;;;;;4952335;29;1167;-65
2022/12/21 08:14:51;;;;;;;;;;;5.90;99.90;;;;;;4952259;28;1112;-65
2022/12/21 08:17:17;;;;;;;;;;;5.70;99.90;;;;;;4958405;28;1922;-65
2022/12/21 08:19:43;;;;;;;;;;;5.70;99.90;;;;;;4947192;28;3398;-65
2022/12/21 08:22:09;;;;;;;;;;;5.60;99.90;;;;;;4948521;28;3693;-65
2022/12/21 08:24:35;;;;;;;;;;;5.60;99.90;;;;;;4940688;28;2496;-65
2022/12/21 08:27:01;;;;;;;;;;;5.70;99.90;;;;;;4949829;28;4137;-65
2022/12/21 08:29:27;;;;;;;;;;;5.80;99.90;;;;;;4950916;28;1469;-65
2022/12/21 08:31:52;;;;;;;;;;;5.80;99.90;;;;;;4949924;28;3496;-65
2022/12/21 08:34:18;;;;;;;;;;;5.70;99.90;;;;;;4933150;28;1288;-65
2022/12/21 08:36:44;;;;;;;;;;;5.70;99.90;;;;;;4950890;29;1097;-65
2022/12/21 08:39:10;;;;;;;;;;;5.90;99.90;;;;;;4953123;28;1903;-65
2022/12/21 08:41:36;;;;;;;;;;;5.80;99.90;;;;;;4952693;28;1217;-65
2022/12/21 08:44:02;;;;;;;;;;;5.80;99.90;;;;;;4951105;29;1345;-65
2022/12/21 08:46:28;;;;;;;;;;;6.00;99.90;;;;;;4952170;28;1262;-65
2022/12/21 08:48:53;;;;;;;;;;;5.90;99.90;;;;;;4946069;28;1278;-65
2022/12/21 08:51:19;;;;;;;;;;;5.90;99.90;;;;;;4965833;28;1267;-65
2022/12/21 08:53:45;;;;;;;;;;;5.90;99.90;;;;;;4951304;28;1592;-65
2022/12/21 08:56:10;;;;;;;;;;;5.80;99.90;;;;;;4951042;29;1168;-65
2022/12/21 08:58:36;;;;;;;;;;;5.80;99.90;;;;;;4950644;28;1911;-65
2022/12/21 09:01:02;;;;;;;;;;;5.80;99.90;;;;;;4941702;29;1240;-65
2022/12/21 09:03:27;;;;;;;;;;;5.80;99.90;;;;;;4950720;28;1294;-65
2022/12/21 09:05:54;;;;;;;;;;;6.00;99.90;;;;;;4942527;29;1223;-65
2022/12/21 09:08:20;;;;;;;;;;;5.90;99.90;;;;;;4951626;28;1156;-65
2022/12/21 09:10:45;;;;;;;;;;;6.00;99.90;;;;;;4950153;28;1312;-65
2022/12/21 09:13:11;;;;;;;;;;;6.00;99.90;;;;;;4952600;28;1218;-65
2022/12/21 09:15:41;;;;;;;;;;;6.10;99.90;;;;;;4953505;28;1254;-65
2022/12/21 09:18:07;;;;;;;;;;;6.20;99.90;;;;;;4950600;29;1981;-65
2022/12/21 09:20:33;;;;;;;;;;;6.20;99.90;;;;;;4950344;29;1009;-65
2022/12/21 09:22:59;;;;;;;;;;;6.20;99.90;;;;;;4950588;29;985;-65
2022/12/21 09:25:25;;;;;;;;;;;6.20;99.90;;;;;;4958657;28;1201;-65
2022/12/21 09:27:51;;;;;;;;;;;6.20;99.90;;;;;;4970185;28;1099;-65
2022/12/21 09:30:16;;;;;;;;;;;6.20;99.90;;;;;;4970083;28;1095;-65
2022/12/21 09:32:42;;;;;;;;;;;6.20;99.90;;;;;;4970534;28;1214;-65
2022/12/21 09:35:08;;;;;;;;;;;6.20;99.90;;;;;;4960065;28;1096;-65
2022/12/21 09:37:33;;;;;;;;;;;6.20;99.90;;;;;;4963792;28;1981;-65
2022/12/21 09:39:59;;;;;;;;;;;6.30;99.90;;;;;;4951074;28;1183;-65
2022/12/21 09:42:24;;;;;;;;;;;6.30;99.90;;;;;;4951749;28;1116;-65
2022/12/21 09:44:54;;;;;;;;;;;6.40;99.90;;;;;;4962512;28;1287;-65
2022/12/21 09:47:25;;;;;;;;;;;6.30;99.90;;;;;;4918226;29;1058;-65
2022/12/21 09:49:54;;;;;;;;;;;6.20;99.90;;;;;;4950864;29;1166;-65
2022/12/21 09:52:23;;;;;;;;;;;6.30;99.90;;;;;;4957107;28;1310;-65
2022/12/21 09:55:00;;;;;;;;;;;6.20;99.90;;;;;;4951017;29;1132;-65
2022/12/21 09:57:27;;;;;;;;;;;6.20;99.90;;;;;;4948235;29;1973;-65
2022/12/21 09:59:53;;;;;;;;;;;6.30;99.90;;;;;;4949939;28;1056;-65
2022/12/21 10:02:32;;;;;;;;;;;6.30;99.90;;;;;;4967669;28;1187;-65
2022/12/21 10:05:11;;;;;;;;;;;6.30;99.90;;;;;;4943629;29;1073;-65
2022/12/21 10:07:50;;;;;;;;;;;6.30;99.90;;;;;;4950436;29;1251;-65
2022/12/21 10:10:17;;;;;;;;;;;6.30;99.90;;;;;;4953483;28;1138;-65
2022/12/21 10:12:49;;;;;;;;;;;6.20;99.90;;;;;;4968818;28;1115;-65
2022/12/21 10:15:22;;;;;;;;;;;6.10;99.90;;;;;;4970021;28;1123;-65
2022/12/21 10:17:56;;;;;;;;;;;6.20;99.90;;;;;;4956161;28;1906;-65
2022/12/21 10:20:22;;;;;;;;;;;6.30;99.90;;;;;;4968765;28;1132;-65
2022/12/21 10:22:51;;;;;;;;;;;6.30;99.90;;;;;;4969709;28;1142;-65
2022/12/21 10:25:20;;;;;;;;;;;6.30;99.90;;;;;;4970010;28;1237;-65
2022/12/21 10:27:49;;;;;;;;;;;6.40;99.90;;;;;;4967530;28;1243;-65
2022/12/21 10:30:15;;;;;;;;;;;6.40;99.90;;;;;;4970008;28;1107;-65
2022/12/21 10:32:44;;;;;;;;;;;6.30;99.90;;;;;;4969943;28;1095;-65
2022/12/21 10:35:16;;;;;;;;;;;6.40;99.90;;;;;;4965802;28;1183;-66
2022/12/21 10:37:43;;;;;;;;;;;6.50;99.90;;;;;;4957656;28;1986;-65
2022/12/21 10:40:10;;;;;;;;;;;6.50;99.90;;;;;;4933648;29;1108;-65
2022/12/21 10:42:37;;;;;;;;;;;6.50;99.90;;;;;;4949834;29;1159;-65
2022/12/21 10:45:03;;;;;;;;;;;6.50;99.90;;;;;;4950259;28;1157;-65
2022/12/21 10:47:29;;;;;;;;;;;6.50;99.90;;;;;;4950147;28;938;-65
2022/12/21 10:50:04;;;;;;;;;;;6.40;99.90;;;;;;4953688;29;1096;-65
2022/12/21 10:52:44;;;;;;;;;;;6.60;99.90;;;;;;4961161;28;1327;-65
2022/12/21 10:55:18;;;;;;;;;;;6.40;99.90;;;;;;4945789;29;1171;-65
2022/12/21 10:57:54;;;;;;;;;;;6.50;99.90;;;;;;4953713;29;1907;-65
2022/12/21 11:00:24;;;;;;;;;;;6.60;99.90;;;;;;4953933;29;1104;-65
2022/12/21 11:02:51;;;;;;;;;;;6.60;99.90;;;;;;4958524;28;1338;-65
2022/12/21 11:05:26;;;;;;;;;;;6.80;99.90;;;;;;4953443;29;1194;-65
2022/12/21 11:07:52;;;;;;;;;;;7.20;99.90;;;;;;4953593;29;1080;-65
2022/12/21 11:10:27;;;;;;;;;;;7.90;99.90;;;;;;4952153;28;1104;-65
2022/12/21 11:12:53;;;;;;;;;;;8.00;99.90;;;;;;4964573;28;1095;-65
2022/12/21 11:15:20;;;;;;;;;;;8.30;99.90;;;;;;4972462;28;1194;-65
2022/12/21 11:17:46;;;;;;;;;;;8.40;99.90;;;;;;4958884;28;1975;-65
2022/12/21 11:20:16;;;;;;;;;;;8.50;99.90;;;;;;4957813;28;1191;-66
2022/12/21 11:22:43;;;;;;;;;;;8.60;99.90;;;;;;4971829;28;1155;-66
2022/12/21 11:25:17;;;;;;;;;;;9.10;99.90;;;;;;4972318;28;996;-66
2022/12/21 11:27:44;;;;;;;;;;;9.50;99.90;;;;;;4972364;28;1115;-66
2022/12/21 11:30:19;;;;;;;;;;;9.80;99.90;;;;;;4942725;28;1228;-66
2022/12/21 11:32:45;;;;;;;;;;;9.60;99.90;;;;;;4972382;28;1167;-66
2022/12/21 11:35:18;;;;;;;;;;;9.30;99.90;;;;;;4972686;28;1151;-66
2022/12/21 11:37:46;;;;;;;;;;;9.20;99.90;;;;;;4942370;28;1923;-66
2022/12/21 11:40:11;;;;;;;;;;;9.10;99.90;;;;;;4952683;28;1290;-66
2022/12/21 11:42:56;;;;;;;;;;;9.10;99.90;;;;;;4951333;28;1231;-66
2022/12/21 11:45:23;;;;;;;;;;;9.30;99.90;;;;;;4960304;28;997;-66
2022/12/21 11:48:00;;;;;;;;;;;9.80;99.90;;;;;;4957024;28;1140;-66
2022/12/21 11:50:29;;;;;;;;;;;10.00;99.90;;;;;;4957339;28;1132;-66
2022/12/21 11:53:05;;;;;;;;;;;10.00;99.90;;;;;;4947123;28;2427;-66
2022/12/21 11:55:34;;;;;;;;;;;9.80;99.90;;;;;;4948956;28;3744;-66
2022/12/21 11:58:00;;;;;;;;;;;9.60;99.90;;;;;;4948832;29;2024;-66
2022/12/21 12:00:30;;;;;;;;;;;9.60;99.90;;;;;;4953508;28;3580;-66
2022/12/21 12:03:07;;;;;;;;;;;9.60;99.90;;;;;;4962521;28;1662;-66
2022/12/21 12:05:34;;;;;;;;;;;9.50;99.90;;;;;;4962042;28;1423;-66
2022/12/21 12:08:22;;;;;;;;;;;9.30;99.90;;;;;;4952776;28;1279;-67
2022/12/21 12:10:53;;;;;;;;;;;9.30;99.90;;;;;;4952060;29;1250;-66
2022/12/21 12:13:29;;;;;;;;;;;9.20;99.90;;;;;;4953207;28;1171;-66
2022/12/21 12:15:56;;;;;;;;;;;9.20;99.90;;;;;;4971722;28;1091;-66
2022/12/21 12:18:34;;;;;;;;;;;9.10;99.90;;;;;;4971129;28;1918;-66
2022/12/21 12:21:06;;;;;;;;;;;9.30;99.90;;;;;;4970272;28;1158;-67
2022/12/21 12:23:40;;;;;;;;;;;9.60;99.90;;;;;;4951133;29;990;-66
2022/12/21 12:26:15;;;;;;;;;;;9.90;99.90;;;;;;4951288;28;1108;-66
2022/12/21 12:28:52;;;;;;;;;;;10.20;99.90;;;;;;4952203;29;1178;-66
2022/12/21 12:31:26;;;;;;;;;;;10.20;99.90;;;;;;4953920;28;1100;-66
2022/12/21 12:34:01;;;;;;;;;;;10.00;99.90;;;;;;4970520;28;1076;-66
2022/12/21 12:36:32;;;;;;;;;;;10.40;99.90;;;;;;4949774;29;1097;-66
2022/12/21 12:38:59;;;;;;;;;;;10.80;99.90;;;;;;4951108;28;1903;-66
2022/12/21 12:41:25;;;;;;;;;;;11.00;99.90;;;;;;4951147;29;1111;-66
2022/12/21 12:43:51;;;;;;;;;;;;;;;;;;4952113;29;1069;-66
2022/12/21 12:46:25;;;;;;;;;;;11.70;99.90;;;;;;4951515;29;1242;-66
2022/12/21 12:48:52;;;;;;;;;;;11.60;99.90;;;;;;4950898;28;1108;-67
2022/12/21 12:51:27;;;;;;;;;;;11.70;99.90;;;;;;4955655;28;1282;-66
2022/12/21 12:54:03;;;;;;;;;;;11.70;99.90;;;;;;4949483;28;1589;-67
2022/12/21 12:56:31;;;;;;;;;;;11.90;99.90;;;;;;4941674;28;1246;-67
2022/12/21 12:58:57;;;;;;;;;;;12.00;99.90;;;;;;4968033;28;1907;-67
2022/12/21 13:01:28;;;;;;;;;;;12.10;99.90;;;;;;4969890;28;1186;-67
2022/12/21 13:04:13;;;;;;;;;;;12.20;99.90;;;;;;4959436;28;1745;-67
2022/12/21 13:06:40;;;;;;;;;;;12.20;99.90;;;;;;4950673;28;1215;-66
2022/12/21 13:09:17;;;;;;;;;;;12.20;99.90;;;;;;4951578;28;1290;-67
2022/12/21 13:11:46;;;;;;;;;;;12.10;99.90;;;;;;4943866;28;1235;-66
2022/12/21 13:14:22;;;;;;;;;;;12.10;99.90;;;;;;4938743;28;1680;-67
2022/12/21 13:16:54;;;;;;;;;;;12.10;99.90;;;;;;4950175;28;1282;-67
2022/12/21 13:19:21;;;;;;;;;;;12.30;99.90;;;;;;4951416;28;1962;-66
2022/12/21 13:21:49;;;;;;;;;;;12.40;99.90;;;;;;4952526;28;1175;-67
2022/12/21 13:24:17;;;;;;;;;;;12.60;99.90;;;;;;4949859;28;1226;-67
2022/12/21 13:26:46;;;;;;;;;;;12.60;99.90;;;;;;4956856;28;1270;-67
2022/12/21 13:29:15;;;;;;;;;;;12.10;99.90;;;;;;4970052;28;960;-67
2022/12/21 13:31:44;;;;;;;;;;;11.30;99.90;;;;;;4955790;28;3926;-67
2022/12/21 13:34:13;;;;;;;;;;;10.40;99.90;;;;;;4941495;28;3649;-67
2022/12/21 13:36:40;;;;;;;;;;;9.90;99.90;;;;;;4969847;28;1131;-67
2022/12/21 13:39:09;;;;;;;;;;;9.50;99.90;;;;;;4944232;28;3944;-67
2022/12/21 13:41:39;;;;;;;;;;;9.50;99.90;;;;;;4933277;29;990;-67
2022/12/21 13:44:15;;;;;;;;;;;9.60;99.90;;;;;;4952989;28;1100;-67
2022/12/21 13:46:42;;;;;;;;;;;9.80;99.90;;;;;;4933404;29;1160;-67
2022/12/21 13:49:14;;;;;;;;;;;10.00;99.90;;;;;;4940216;28;3243;-66
2022/12/21 13:51:45;;;;;;;;;;;9.80;99.90;;;;;;4955288;28;1231;-66
2022/12/21 13:54:19;;;;;;;;;;;9.80;99.90;;;;;;4948832;28;1093;-66
2022/12/21 13:56:52;;;;;;;;;;;9.80;99.90;;;;;;4951001;28;1223;-66
2022/12/21 13:59:25;;;;;;;;;;;9.50;99.90;;;;;;4949643;28;1907;-66
2022/12/21 14:02:07;;;;;;;;;;;8.90;99.90;;;;;;4950590;28;1226;-66
2022/12/21 14:04:32;;;;;;;;;;;8.50;99.90;;;;;;4950735;28;1889;-66
2022/12/21 14:07:00;;;;;;;;;;;8.20;99.90;;;;;;4952962;28;1348;-66
2022/12/21 14:09:32;;;;;;;;;;;8.10;99.90;;;;;;4951936;28;1238;-66
2022/12/21 14:12:16;;;;;;;;;;;8.00;99.90;;;;;;4949628;28;1065;-66
2022/12/21 14:14:42;;;;;;;;;;;7.90;99.90;;;;;;4948225;28;1227;-66
2022/12/21 14:17:16;;;;;;;;;;;7.80;99.90;;;;;;4951378;28;1284;-66
2022/12/21 14:19:52;;;;;;;;;;;7.80;99.90;;;;;;4950676;28;1914;-66
2022/12/21 14:22:38;;;;;;;;;;;7.80;99.90;;;;;;4948409;28;1267;-66
2022/12/21 14:25:08;;;;;;;;;;;7.60;99.90;;;;;;4952787;28;1128;-66
2022/12/21 14:27:34;;;;;;;;;;;7.60;99.90;;;;;;4965611;28;1131;-66
2022/12/21 14:30:04;;;;;;;;;;;7.60;99.90;;;;;;4973521;28;1163;-66
2022/12/21 14:32:30;;;;;;;;;;;7.60;99.90;;;;;;4961747;28;1182;-66
2022/12/21 14:35:00;;;;;;;;;;;7.50;99.90;;;;;;4969760;28;1168;-66
2022/12/21 14:37:26;;;;;;;;;;;7.60;99.90;;;;;;4961283;28;1997;-66
2022/12/21 14:40:01;;;;;;;;;;;7.60;99.90;;;;;;4953195;29;1198;-66
2022/12/21 14:42:35;;;;;;;;;;;7.50;99.90;;;;;;4954174;28;1227;-66
2022/12/21 14:45:11;;;;;;;;;;;7.50;99.90;;;;;;4953083;28;1152;-66
2022/12/21 14:47:38;;;;;;;;;;;7.40;99.90;;;;;;4953010;29;1113;-66
2022/12/21 14:50:16;;;;;;;;;;;7.50;99.90;;;;;;4953942;29;1040;-66
2022/12/21 14:53:01;;;;;;;;;;;7.50;99.90;;;;;;4952386;28;3599;-66
2022/12/21 14:55:29;;;;;;;;;;;7.50;99.90;;;;;;4947106;28;1808;-65
2022/12/21 14:57:55;;;;;;;;;;;7.50;99.90;;;;;;4953991;29;1943;-66